sensor_id;sensor_type;location;lat;lon;timestamp;temperature;humidity
1301;DHT22;59099;48.806;9.160;2022-07-24T00:01:56;20.70;99.90
1301;DHT22;59099;48.806;9.160;2022-07-24T00:04:22;20.70;99.90
1301;DHT22;59099;48.806;9.160;2022-07-24T00:06:47;20.60;99.90
1301;DHT22;59099;48.806;9.160;2022-07-24T00:09:13;20.60;99.90
1301;DHT22;59099;48.806;9.160;2022-07-24T00:11:39;20.70;99.90
1301;DHT22;59099;48.806;9.160;2022-07-24T00:14:05;20.70;99.90
1301;DHT22;59099;48.806;9.160;2022-07-24T00:16:30;20.60;99.90
1301;DHT22;59099;48.806;9.160;2022-07-24T00:18:56;20.60;99.90
1301;DHT22;59099;48.806;9.160;2022-07-24T00:21:22;20.60;99.90
1301;DHT22;59099;48.806;9.160;2022-07-24T00:23:48;20.50;99.90
1301;DHT22;59099;48.806;9.160;2022-07-24T00:26:14;20.40;99.90
1301;DHT22;59099;48.806;9.160;2022-07-24T00:28:40;20.40;99.90
1301;DHT22;59099;48.806;9.160;2022-07-24T00:31:05;20.40;99.90
1301;DHT22;59099;48.806;9.160;2022-07-24T00:33:31;20.50;99.90
1301;DHT22;59099;48.806;9.160;2022-07-24T00:35:57;20.40;99.90
1301;DHT22;59099;48.806;9.160;2022-07-24T00:38:23;20.30;99.90
1301;DHT22;59099;48.806;9.160;2022-07-24T00:40:49;20.50;99.90
1301;DHT22;59099;48.806;9.160;2022-07-24T00:43:15;20.50;99.90
1301;DHT22;59099;48.806;9.160;2022-07-24T00:45:43;20.50;99.90
1301;DHT22;59099;48.806;9.160;2022-07-24T00:48:09;20.40;99.90
1301;DHT22;59099;48.806;9.160;2022-07-24T00:50:36;20.40;99.90
1301;DHT22;59099;48.806;9.160;2022-07-24T00:53:03;20.40;99.90
1301;DHT22;59099;48.806;9.160;2022-07-24T00:55:30;20.40;99.90
1301;DHT22;59099;48.806;9.160;2022-07-24T00:57:58;20.40;99.90
1301;DHT22;59099;48.806;9.160;2022-07-24T01:00:24;20.40;99.90
1301;DHT22;59099;48.806;9.160;2022-07-24T01:02:50;20.40;99.90
1301;DHT22;59099;48.806;9.160;2022-07-24T01:05:16;20.40;99.90
1301;DHT22;59099;48.806;9.160;2022-07-24T01:07:42;20.50;99.90
1301;DHT22;59099;48.806;9.160;2022-07-24T01:10:08;20.40;99.90
1301;DHT22;59099;48.806;9.160;2022-07-24T01:12:36;20.30;99.90
1301;DHT22;59099;48.806;9.160;2022-07-24T01:15:04;20.20;99.90
1301;DHT22;59099;48.806;9.160;2022-07-24T01:17:31;20.30;99.90
1301;DHT22;59099;48.806;9.160;2022-07-24T01:19:57;20.20;99.90
1301;DHT22;59099;48.806;9.160;2022-07-24T01:22:27;20.20;99.90
1301;DHT22;59099;48.806;9.160;2022-07-24T01:24:54;20.10;99.90
1301;DHT22;59099;48.806;9.160;2022-07-24T01:27:21;20.10;99.90
1301;DHT22;59099;48.806;9.160;2022-07-24T01:29:48;20.10;99.90
1301;DHT22;59099;48.806;9.160;2022-07-24T01:32:14;20.30;99.90
1301;DHT22;59099;48.806;9.160;2022-07-24T01:34:40;20.20;99.90
1301;DHT22;59099;48.806;9.160;2022-07-24T01:37:06;20.10;99.90
1301;DHT22;59099;48.806;9.160;2022-07-24T01:39:32;20.20;99.90
1301;DHT22;59099;48.806;9.160;2022-07-24T01:41:57;20.10;99.90
1301;DHT22;59099;48.806;9.160;2022-07-24T01:44:23;20.00;99.90
1301;DHT22;59099;48.806;9.160;2022-07-24T01:46:49;20.00;99.90
1301;DHT22;59099;48.806;9.160;2022-07-24T01:49:15;19.90;99.90
1301;DHT22;59099;48.806;9.160;2022-07-24T01:51:41;19.90;99.90
1301;DHT22;59099;48.806;9.160;2022-07-24T01:54:07;19.80;99.90
1301;DHT22;59099;48.806;9.160;2022-07-24T01:56:33;19.80;99.90
1301;DHT22;59099;48.806;9.160;2022-07-24T01:58:59;19.80;99.90
1301;DHT22;59099;48.806;9.160;2022-07-24T02:01:26;19.70;99.90
1301;DHT22;59099;48.806;9.160;2022-07-24T02:03:52;19.70;99.90
1301;DHT22;59099;48.806;9.160;2022-07-24T02:06:18;19.60;99.90
1301;DHT22;59099;48.806;9.160;2022-07-24T02:08:44;19.50;99.90
1301;DHT22;59099;48.806;9.160;2022-07-24T02:11:10;19.50;99.90
1301;DHT22;59099;48.806;9.160;2022-07-24T02:13:37;19.40;99.90
1301;DHT22;59099;48.806;9.160;2022-07-24T02:16:03;19.30;99.90
1301;DHT22;59099;48.806;9.160;2022-07-24T02:18:29;19.30;99.90
1301;DHT22;59099;48.806;9.160;2022-07-24T02:20:55;19.20;99.90
1301;DHT22;59099;48.806;9.160;2022-07-24T02:23:21;19.20;99.90
1301;DHT22;59099;48.806;9.160;2022-07-24T02:25:48;19.00;99.90
1301;DHT22;59099;48.806;9.160;2022-07-24T02:28:15;19.00;99.90
1301;DHT22;59099;48.806;9.160;2022-07-24T02:30:42;18.90;99.90
1301;DHT22;59099;48.806;9.160;2022-07-24T02:33:09;18.90;99.90
1301;DHT22;59099;48.806;9.160;2022-07-24T02:35:35;18.90;99.90
1301;DHT22;59099;48.806;9.160;2022-07-24T02:38:02;18.90;99.90
1301;DHT22;59099;48.806;9.160;2022-07-24T02:40:28;18.90;99.90
1301;DHT22;59099;48.806;9.160;2022-07-24T02:42:54;18.90;99.90
1301;DHT22;59099;48.806;9.160;2022-07-24T02:45:19;18.80;99.90
1301;DHT22;59099;48.806;9.160;2022-07-24T02:50:13;18.80;99.90
1301;DHT22;59099;48.806;9.160;2022-07-24T02:52:39;18.90;99.90
1301;DHT22;59099;48.806;9.160;2022-07-24T02:55:05;18.90;99.90
1301;DHT22;59099;48.806;9.160;2022-07-24T02:57:31;18.90;99.90
1301;DHT22;59099;48.806;9.160;2022-07-24T02:59:58;18.80;99.90
1301;DHT22;59099;48.806;9.160;2022-07-24T03:02:24;18.70;99.90
1301;DHT22;59099;48.806;9.160;2022-07-24T03:04:50;18.60;99.90
1301;DHT22;59099;48.806;9.160;2022-07-24T03:07:16;18.60;99.90
1301;DHT22;59099;48.806;9.160;2022-07-24T03:09:42;18.50;99.90
1301;DHT22;59099;48.806;9.160;2022-07-24T03:12:08;18.50;99.90
1301;DHT22;59099;48.806;9.160;2022-07-24T03:14:34;18.60;99.90
1301;DHT22;59099;48.806;9.160;2022-07-24T03:17:00;18.60;99.90
1301;DHT22;59099;48.806;9.160;2022-07-24T03:19:26;18.70;99.90
1301;DHT22;59099;48.806;9.160;2022-07-24T03:21:52;18.70;99.90
1301;DHT22;59099;48.806;9.160;2022-07-24T03:24:17;18.60;99.90
1301;DHT22;59099;48.806;9.160;2022-07-24T03:26:43;18.60;99.90
1301;DHT22;59099;48.806;9.160;2022-07-24T03:29:09;18.70;99.90
1301;DHT22;59099;48.806;9.160;2022-07-24T03:31:35;18.70;99.90
1301;DHT22;59099;48.806;9.160;2022-07-24T03:34:01;18.60;99.90
1301;DHT22;59099;48.806;9.160;2022-07-24T03:36:27;18.60;99.90
1301;DHT22;59099;48.806;9.160;2022-07-24T03:38:53;18.50;99.90
1301;DHT22;59099;48.806;9.160;2022-07-24T03:41:19;18.40;99.90
1301;DHT22;59099;48.806;9.160;2022-07-24T03:43:46;18.30;99.90
1301;DHT22;59099;48.806;9.160;2022-07-24T03:46:11;18.20;99.90
1301;DHT22;59099;48.806;9.160;2022-07-24T03:48:37;18.20;99.90
1301;DHT22;59099;48.806;9.160;2022-07-24T03:51:03;18.20;99.90
1301;DHT22;59099;48.806;9.160;2022-07-24T03:53:29;18.10;99.90
1301;DHT22;59099;48.806;9.160;2022-07-24T03:55:56;18.10;99.90
1301;DHT22;59099;48.806;9.160;2022-07-24T03:58:21;18.10;99.90
1301;DHT22;59099;48.806;9.160;2022-07-24T04:00:47;18.20;99.90
1301;DHT22;59099;48.806;9.160;2022-07-24T04:03:13;18.10;99.90
1301;DHT22;59099;48.806;9.160;2022-07-24T04:05:39;18.10;99.90
1301;DHT22;59099;48.806;9.160;2022-07-24T04:08:05;18.10;99.90
1301;DHT22;59099;48.806;9.160;2022-07-24T04:10:31;18.10;99.90
1301;DHT22;59099;48.806;9.160;2022-07-24T04:12:57;18.10;99.90
1301;DHT22;59099;48.806;9.160;2022-07-24T04:15:22;18.20;99.90
1301;DHT22;59099;48.806;9.160;2022-07-24T04:17:48;18.20;99.90
1301;DHT22;59099;48.806;9.160;2022-07-24T04:20:14;18.20;99.90
1301;DHT22;59099;48.806;9.160;2022-07-24T04:22:40;18.20;99.90
1301;DHT22;59099;48.806;9.160;2022-07-24T04:25:06;18.20;99.90
1301;DHT22;59099;48.806;9.160;2022-07-24T04:27:33;18.20;99.90
1301;DHT22;59099;48.806;9.160;2022-07-24T04:29:59;18.10;99.90
1301;DHT22;59099;48.806;9.160;2022-07-24T04:32:25;18.10;99.90
1301;DHT22;59099;48.806;9.160;2022-07-24T04:34:51;18.00;99.90
1301;DHT22;59099;48.806;9.160;2022-07-24T04:37:17;17.90;99.90
1301;DHT22;59099;48.806;9.160;2022-07-24T04:39:43;18.00;99.90
1301;DHT22;59099;48.806;9.160;2022-07-24T04:42:08;18.00;99.90
1301;DHT22;59099;48.806;9.160;2022-07-24T04:44:34;18.10;99.90
1301;DHT22;59099;48.806;9.160;2022-07-24T04:47:00;18.20;99.90
1301;DHT22;59099;48.806;9.160;2022-07-24T04:49:26;18.20;99.90
1301;DHT22;59099;48.806;9.160;2022-07-24T04:51:52;18.30;99.90
1301;DHT22;59099;48.806;9.160;2022-07-24T04:54:18;18.30;99.90
1301;DHT22;59099;48.806;9.160;2022-07-24T04:56:44;18.40;99.90
1301;DHT22;59099;48.806;9.160;2022-07-24T04:59:10;18.50;99.90
1301;DHT22;59099;48.806;9.160;2022-07-24T05:01:35;18.50;99.90
1301;DHT22;59099;48.806;9.160;2022-07-24T05:04:01;18.50;99.90
1301;DHT22;59099;48.806;9.160;2022-07-24T05:06:27;18.70;99.90
1301;DHT22;59099;48.806;9.160;2022-07-24T05:08:53;18.70;99.90
1301;DHT22;59099;48.806;9.160;2022-07-24T05:11:19;18.70;99.90
1301;DHT22;59099;48.806;9.160;2022-07-24T05:13:45;18.90;99.90
1301;DHT22;59099;48.806;9.160;2022-07-24T05:16:11;19.00;99.90
1301;DHT22;59099;48.806;9.160;2022-07-24T05:18:37;18.90;99.90
1301;DHT22;59099;48.806;9.160;2022-07-24T05:21:03;18.90;99.90
1301;DHT22;59099;48.806;9.160;2022-07-24T05:23:29;18.90;99.90
1301;DHT22;59099;48.806;9.160;2022-07-24T05:25:55;19.00;99.90
1301;DHT22;59099;48.806;9.160;2022-07-24T05:28:20;19.20;99.90
1301;DHT22;59099;48.806;9.160;2022-07-24T05:30:46;19.30;99.90
1301;DHT22;59099;48.806;9.160;2022-07-24T05:33:12;19.50;99.90
1301;DHT22;59099;48.806;9.160;2022-07-24T05:35:38;19.60;99.90
1301;DHT22;59099;48.806;9.160;2022-07-24T05:38:04;19.70;99.90
1301;DHT22;59099;48.806;9.160;2022-07-24T05:40:30;19.80;99.90
1301;DHT22;59099;48.806;9.160;2022-07-24T05:42:55;19.70;99.90
1301;DHT22;59099;48.806;9.160;2022-07-24T05:45:22;19.80;99.90
1301;DHT22;59099;48.806;9.160;2022-07-24T05:47:47;19.90;99.90
1301;DHT22;59099;48.806;9.160;2022-07-24T05:50:14;20.10;99.90
1301;DHT22;59099;48.806;9.160;2022-07-24T05:52:41;20.20;99.90
1301;DHT22;59099;48.806;9.160;2022-07-24T05:55:08;20.20;99.90
1301;DHT22;59099;48.806;9.160;2022-07-24T05:57:34;20.40;99.90
1301;DHT22;59099;48.806;9.160;2022-07-24T06:00:00;20.50;99.90
1301;DHT22;59099;48.806;9.160;2022-07-24T06:02:26;20.50;99.90
1301;DHT22;59099;48.806;9.160;2022-07-24T06:04:52;20.50;99.90
1301;DHT22;59099;48.806;9.160;2022-07-24T06:07:17;20.60;99.90
1301;DHT22;59099;48.806;9.160;2022-07-24T06:09:43;20.60;99.90
1301;DHT22;59099;48.806;9.160;2022-07-24T06:12:09;20.70;99.90
1301;DHT22;59099;48.806;9.160;2022-07-24T06:14:35;20.80;99.90
1301;DHT22;59099;48.806;9.160;2022-07-24T06:17:01;21.00;99.90
1301;DHT22;59099;48.806;9.160;2022-07-24T06:19:27;21.20;99.90
1301;DHT22;59099;48.806;9.160;2022-07-24T06:21:53;21.30;99.90
1301;DHT22;59099;48.806;9.160;2022-07-24T06:24:19;21.30;99.90
1301;DHT22;59099;48.806;9.160;2022-07-24T06:26:44;21.40;99.90
1301;DHT22;59099;48.806;9.160;2022-07-24T06:29:10;21.50;99.90
1301;DHT22;59099;48.806;9.160;2022-07-24T06:31:36;21.60;99.90
1301;DHT22;59099;48.806;9.160;2022-07-24T06:34:02;21.70;99.90
1301;DHT22;59099;48.806;9.160;2022-07-24T06:36:29;21.80;99.90
1301;DHT22;59099;48.806;9.160;2022-07-24T06:38:55;21.80;99.90
1301;DHT22;59099;48.806;9.160;2022-07-24T06:41:21;22.00;99.90
1301;DHT22;59099;48.806;9.160;2022-07-24T06:43:47;22.10;99.90
1301;DHT22;59099;48.806;9.160;2022-07-24T06:46:13;22.20;99.90
1301;DHT22;59099;48.806;9.160;2022-07-24T06:48:39;22.40;99.90
1301;DHT22;59099;48.806;9.160;2022-07-24T06:51:05;22.50;99.90
1301;DHT22;59099;48.806;9.160;2022-07-24T06:53:30;22.70;99.90
1301;DHT22;59099;48.806;9.160;2022-07-24T06:55:56;22.80;99.90
1301;DHT22;59099;48.806;9.160;2022-07-24T06:58:22;22.90;99.90
1301;DHT22;59099;48.806;9.160;2022-07-24T07:00:48;23.00;99.90
1301;DHT22;59099;48.806;9.160;2022-07-24T07:03:16;23.10;99.90
1301;DHT22;59099;48.806;9.160;2022-07-24T07:05:42;23.20;99.90
1301;DHT22;59099;48.806;9.160;2022-07-24T07:08:08;23.30;99.90
1301;DHT22;59099;48.806;9.160;2022-07-24T07:10:34;23.40;99.90
1301;DHT22;59099;48.806;9.160;2022-07-24T07:13:00;23.50;99.90
1301;DHT22;59099;48.806;9.160;2022-07-24T07:15:26;23.70;99.90
1301;DHT22;59099;48.806;9.160;2022-07-24T07:17:52;23.80;99.90
1301;DHT22;59099;48.806;9.160;2022-07-24T07:20:18;23.90;99.90
1301;DHT22;59099;48.806;9.160;2022-07-24T07:22:44;24.00;99.90
1301;DHT22;59099;48.806;9.160;2022-07-24T07:25:11;24.10;99.90
1301;DHT22;59099;48.806;9.160;2022-07-24T07:27:37;24.20;99.90
1301;DHT22;59099;48.806;9.160;2022-07-24T07:30:07;24.30;99.90
1301;DHT22;59099;48.806;9.160;2022-07-24T07:32:33;24.40;99.90
1301;DHT22;59099;48.806;9.160;2022-07-24T07:34:59;24.50;99.90
1301;DHT22;59099;48.806;9.160;2022-07-24T07:37:25;24.70;99.90
1301;DHT22;59099;48.806;9.160;2022-07-24T07:42:44;24.90;99.90
1301;DHT22;59099;48.806;9.160;2022-07-24T07:45:10;25.00;99.90
1301;DHT22;59099;48.806;9.160;2022-07-24T07:47:36;25.10;99.90
1301;DHT22;59099;48.806;9.160;2022-07-24T07:50:12;25.20;99.90
1301;DHT22;59099;48.806;9.160;2022-07-24T07:52:38;25.20;99.90
1301;DHT22;59099;48.806;9.160;2022-07-24T07:55:05;25.20;99.90
1301;DHT22;59099;48.806;9.160;2022-07-24T07:57:31;25.30;99.90
1301;DHT22;59099;48.806;9.160;2022-07-24T07:59:56;25.30;99.90
1301;DHT22;59099;48.806;9.160;2022-07-24T08:02:22;25.30;99.90
1301;DHT22;59099;48.806;9.160;2022-07-24T08:04:48;25.40;99.90
1301;DHT22;59099;48.806;9.160;2022-07-24T08:07:15;25.50;99.90
1301;DHT22;59099;48.806;9.160;2022-07-24T08:09:40;25.60;99.90
1301;DHT22;59099;48.806;9.160;2022-07-24T08:12:07;25.70;99.90
1301;DHT22;59099;48.806;9.160;2022-07-24T08:14:33;25.80;99.90
1301;DHT22;59099;48.806;9.160;2022-07-24T08:16:59;25.80;99.90
1301;DHT22;59099;48.806;9.160;2022-07-24T08:19:24;25.90;99.90
1301;DHT22;59099;48.806;9.160;2022-07-24T08:21:50;26.10;99.90
1301;DHT22;59099;48.806;9.160;2022-07-24T08:24:16;26.20;99.90
1301;DHT22;59099;48.806;9.160;2022-07-24T08:26:47;26.20;99.90
1301;DHT22;59099;48.806;9.160;2022-07-24T08:29:13;26.30;99.90
1301;DHT22;59099;48.806;9.160;2022-07-24T08:31:39;26.40;99.90
1301;DHT22;59099;48.806;9.160;2022-07-24T08:34:05;26.50;99.90
1301;DHT22;59099;48.806;9.160;2022-07-24T08:36:31;26.60;99.90
1301;DHT22;59099;48.806;9.160;2022-07-24T08:38:57;26.80;99.90
1301;DHT22;59099;48.806;9.160;2022-07-24T08:41:23;26.90;99.90
1301;DHT22;59099;48.806;9.160;2022-07-24T08:43:49;26.80;99.90
1301;DHT22;59099;48.806;9.160;2022-07-24T08:46:15;26.90;99.90
1301;DHT22;59099;48.806;9.160;2022-07-24T08:48:45;26.90;99.90
1301;DHT22;59099;48.806;9.160;2022-07-24T08:51:12;26.90;99.90
1301;DHT22;59099;48.806;9.160;2022-07-24T08:53:40;27.00;99.90
1301;DHT22;59099;48.806;9.160;2022-07-24T08:56:06;27.20;99.90
1301;DHT22;59099;48.806;9.160;2022-07-24T08:58:37;27.30;99.70
1301;DHT22;59099;48.806;9.160;2022-07-24T09:01:03;27.40;99.40
1301;DHT22;59099;48.806;9.160;2022-07-24T09:03:46;27.50;98.20
1301;DHT22;59099;48.806;9.160;2022-07-24T09:06:14;27.60;99.00
1301;DHT22;59099;48.806;9.160;2022-07-24T09:09:00;27.90;98.80
1301;DHT22;59099;48.806;9.160;2022-07-24T09:11:27;28.10;99.90
1301;DHT22;59099;48.806;9.160;2022-07-24T09:14:00;28.30;99.90
1301;DHT22;59099;48.806;9.160;2022-07-24T09:16:45;28.40;97.80
1301;DHT22;59099;48.806;9.160;2022-07-24T09:19:11;28.70;97.90
1301;DHT22;59099;48.806;9.160;2022-07-24T09:21:41;28.90;94.40
1301;DHT22;59099;48.806;9.160;2022-07-24T09:24:18;29.10;96.10
1301;DHT22;59099;48.806;9.160;2022-07-24T09:26:55;29.40;97.20
1301;DHT22;59099;48.806;9.160;2022-07-24T09:29:23;29.70;93.90
1301;DHT22;59099;48.806;9.160;2022-07-24T09:32:07;29.90;91.50
1301;DHT22;59099;48.806;9.160;2022-07-24T09:34:40;30.10;90.90
1301;DHT22;59099;48.806;9.160;2022-07-24T09:37:07;30.50;92.30
1301;DHT22;59099;48.806;9.160;2022-07-24T09:39:36;30.70;90.00
1301;DHT22;59099;48.806;9.160;2022-07-24T09:42:04;30.80;85.00
1301;DHT22;59099;48.806;9.160;2022-07-24T09:44:31;30.60;85.10
1301;DHT22;59099;48.806;9.160;2022-07-24T09:47:05;30.50;85.50
1301;DHT22;59099;48.806;9.160;2022-07-24T09:49:32;30.40;85.70
1301;DHT22;59099;48.806;9.160;2022-07-24T09:54:32;30.00;86.40
1301;DHT22;59099;48.806;9.160;2022-07-24T09:57:18;30.00;90.50
1301;DHT22;59099;48.806;9.160;2022-07-24T10:00:02;29.70;84.50
1301;DHT22;59099;48.806;9.160;2022-07-24T10:02:33;29.40;84.20
1301;DHT22;59099;48.806;9.160;2022-07-24T10:05:02;29.30;84.90
1301;DHT22;59099;48.806;9.160;2022-07-24T10:07:29;28.90;85.20
1301;DHT22;59099;48.806;9.160;2022-07-24T10:09:57;28.80;84.80
1301;DHT22;59099;48.806;9.160;2022-07-24T10:12:29;28.70;86.80
1301;DHT22;59099;48.806;9.160;2022-07-24T10:14:56;28.70;87.20
1301;DHT22;59099;48.806;9.160;2022-07-24T10:20:03;28.90;92.90
1301;DHT22;59099;48.806;9.160;2022-07-24T10:22:38;29.30;93.70
1301;DHT22;59099;48.806;9.160;2022-07-24T10:25:08;29.70;91.50
1301;DHT22;59099;48.806;9.160;2022-07-24T10:27:37;30.10;89.10
1301;DHT22;59099;48.806;9.160;2022-07-24T10:30:08;30.60;90.80
1301;DHT22;59099;48.806;9.160;2022-07-24T10:32:35;31.10;84.20
1301;DHT22;59099;48.806;9.160;2022-07-24T10:37:48;32.10;79.10
1301;DHT22;59099;48.806;9.160;2022-07-24T10:40:44;32.70;78.00
1301;DHT22;59099;48.806;9.160;2022-07-24T10:43:15;33.70;74.90
1301;DHT22;59099;48.806;9.160;2022-07-24T10:45:45;34.50;73.50
1301;DHT22;59099;48.806;9.160;2022-07-24T10:51:03;35.20;64.50
1301;DHT22;59099;48.806;9.160;2022-07-24T10:53:47;34.90;63.80
1301;DHT22;59099;48.806;9.160;2022-07-24T10:59:06;34.40;63.40
1301;DHT22;59099;48.806;9.160;2022-07-24T11:04:02;35.50;63.70
1301;DHT22;59099;48.806;9.160;2022-07-24T11:09:27;37.70;54.90
1301;DHT22;59099;48.806;9.160;2022-07-24T11:14:24;37.10;53.80
1301;DHT22;59099;48.806;9.160;2022-07-24T11:16:50;37.10;54.50
1301;DHT22;59099;48.806;9.160;2022-07-24T11:21:44;38.40;56.10
1301;DHT22;59099;48.806;9.160;2022-07-24T11:26:51;38.70;53.20
1301;DHT22;59099;48.806;9.160;2022-07-24T11:29:25;39.10;51.70
1301;DHT22;59099;48.806;9.160;2022-07-24T11:31:58;38.70;52.40
1301;DHT22;59099;48.806;9.160;2022-07-24T11:34:25;38.30;52.70
1301;DHT22;59099;48.806;9.160;2022-07-24T11:36:53;38.10;53.30
1301;DHT22;59099;48.806;9.160;2022-07-24T11:39:26;37.80;53.20
1301;DHT22;59099;48.806;9.160;2022-07-24T11:41:54;38.30;51.00
1301;DHT22;59099;48.806;9.160;2022-07-24T11:47:16;40.70;48.90
1301;DHT22;59099;48.806;9.160;2022-07-24T11:49:51;41.90;46.70
1301;DHT22;59099;48.806;9.160;2022-07-24T11:52:23;43.20;47.40
1301;DHT22;59099;48.806;9.160;2022-07-24T11:54:55;43.70;45.10
1301;DHT22;59099;48.806;9.160;2022-07-24T11:57:30;44.10;44.00
1301;DHT22;59099;48.806;9.160;2022-07-24T11:59:59;44.30;42.90
1301;DHT22;59099;48.806;9.160;2022-07-24T12:02:25;44.10;43.50
1301;DHT22;59099;48.806;9.160;2022-07-24T12:04:52;44.70;43.20
1301;DHT22;59099;48.806;9.160;2022-07-24T12:07:24;45.00;42.10
1301;DHT22;59099;48.806;9.160;2022-07-24T12:09:59;45.70;41.60
1301;DHT22;59099;48.806;9.160;2022-07-24T12:12:30;46.10;40.00
1301;DHT22;59099;48.806;9.160;2022-07-24T12:15:10;46.30;40.90
1301;DHT22;59099;48.806;9.160;2022-07-24T12:20:21;44.50;42.80
1301;DHT22;59099;48.806;9.160;2022-07-24T12:22:47;43.20;42.90
1301;DHT22;59099;48.806;9.160;2022-07-24T12:25:13;41.40;42.10
1301;DHT22;59099;48.806;9.160;2022-07-24T12:27:45;39.90;44.20
1301;DHT22;59099;48.806;9.160;2022-07-24T12:30:30;37.60;46.20
1301;DHT22;59099;48.806;9.160;2022-07-24T12:33:12;36.60;48.40
1301;DHT22;59099;48.806;9.160;2022-07-24T12:36:04;35.70;51.50
1301;DHT22;59099;48.806;9.160;2022-07-24T12:38:49;35.90;51.90
1301;DHT22;59099;48.806;9.160;2022-07-24T12:41:18;36.10;52.60
1301;DHT22;59099;48.806;9.160;2022-07-24T12:44:02;36.70;48.90
1301;DHT22;59099;48.806;9.160;2022-07-24T12:46:38;36.80;50.70
1301;DHT22;59099;48.806;9.160;2022-07-24T12:51:59;39.30;50.60
1301;DHT22;59099;48.806;9.160;2022-07-24T12:56:58;40.30;46.60
1301;DHT22;59099;48.806;9.160;2022-07-24T12:59:35;40.90;45.10
1301;DHT22;59099;48.806;9.160;2022-07-24T13:04:32;39.80;47.50
1301;DHT22;59099;48.806;9.160;2022-07-24T13:07:00;39.10;47.60
1301;DHT22;59099;48.806;9.160;2022-07-24T13:09:28;39.70;46.80
1301;DHT22;59099;48.806;9.160;2022-07-24T13:11:55;40.90;46.10
1301;DHT22;59099;48.806;9.160;2022-07-24T13:14:23;42.50;44.00
1301;DHT22;59099;48.806;9.160;2022-07-24T13:16:51;44.00;42.90
1301;DHT22;59099;48.806;9.160;2022-07-24T13:19:18;44.60;41.30
1301;DHT22;59099;48.806;9.160;2022-07-24T13:21:45;44.80;41.30
1301;DHT22;59099;48.806;9.160;2022-07-24T13:24:12;45.60;40.30
1301;DHT22;59099;48.806;9.160;2022-07-24T13:26:40;46.70;39.10
1301;DHT22;59099;48.806;9.160;2022-07-24T13:29:07;47.70;39.40
1301;DHT22;59099;48.806;9.160;2022-07-24T13:31:33;48.20;37.90
1301;DHT22;59099;48.806;9.160;2022-07-24T13:33:59;47.90;40.00
1301;DHT22;59099;48.806;9.160;2022-07-24T13:36:25;46.50;36.80
1301;DHT22;59099;48.806;9.160;2022-07-24T13:38:51;45.60;41.10
1301;DHT22;59099;48.806;9.160;2022-07-24T13:43:52;45.70;39.50
1301;DHT22;59099;48.806;9.160;2022-07-24T13:46:18;45.70;38.70
1301;DHT22;59099;48.806;9.160;2022-07-24T13:48:44;46.60;38.50
1301;DHT22;59099;48.806;9.160;2022-07-24T13:51:10;47.40;38.80
1301;DHT22;59099;48.806;9.160;2022-07-24T13:53:36;47.10;38.20
1301;DHT22;59099;48.806;9.160;2022-07-24T13:56:06;47.90;37.40
1301;DHT22;59099;48.806;9.160;2022-07-24T13:58:32;48.80;36.10
1301;DHT22;59099;48.806;9.160;2022-07-24T14:01:02;48.80;35.40
1301;DHT22;59099;48.806;9.160;2022-07-24T14:03:28;49.00;36.40
1301;DHT22;59099;48.806;9.160;2022-07-24T14:05:53;48.80;38.10
1301;DHT22;59099;48.806;9.160;2022-07-24T14:08:19;49.10;36.60
1301;DHT22;59099;48.806;9.160;2022-07-24T14:10:45;48.40;36.70
1301;DHT22;59099;48.806;9.160;2022-07-24T14:13:11;49.10;37.10
1301;DHT22;59099;48.806;9.160;2022-07-24T14:15:37;49.20;37.40
1301;DHT22;59099;48.806;9.160;2022-07-24T14:18:03;49.00;36.40
1301;DHT22;59099;48.806;9.160;2022-07-24T14:20:29;49.10;36.30
1301;DHT22;59099;48.806;9.160;2022-07-24T14:22:55;49.20;37.30
1301;DHT22;59099;48.806;9.160;2022-07-24T14:25:21;49.10;35.70
1301;DHT22;59099;48.806;9.160;2022-07-24T14:27:46;46.50;36.00
1301;DHT22;59099;48.806;9.160;2022-07-24T14:30:13;45.50;41.00
1301;DHT22;59099;48.806;9.160;2022-07-24T14:32:39;45.10;39.40
1301;DHT22;59099;48.806;9.160;2022-07-24T14:35:07;44.60;40.20
1301;DHT22;59099;48.806;9.160;2022-07-24T14:37:34;44.30;39.90
1301;DHT22;59099;48.806;9.160;2022-07-24T14:40:00;44.60;40.90
1301;DHT22;59099;48.806;9.160;2022-07-24T14:42:26;44.60;39.30
1301;DHT22;59099;48.806;9.160;2022-07-24T14:44:52;45.60;38.50
1301;DHT22;59099;48.806;9.160;2022-07-24T14:47:18;46.40;38.00
1301;DHT22;59099;48.806;9.160;2022-07-24T14:49:44;46.80;36.80
1301;DHT22;59099;48.806;9.160;2022-07-24T14:52:10;47.80;38.70
1301;DHT22;59099;48.806;9.160;2022-07-24T14:54:35;48.50;36.70
1301;DHT22;59099;48.806;9.160;2022-07-24T14:57:01;48.60;36.30
1301;DHT22;59099;48.806;9.160;2022-07-24T14:59:27;48.90;35.80
1301;DHT22;59099;48.806;9.160;2022-07-24T15:01:53;49.10;36.30
1301;DHT22;59099;48.806;9.160;2022-07-24T15:04:19;47.00;34.60
1301;DHT22;59099;48.806;9.160;2022-07-24T15:06:45;45.20;36.60
1301;DHT22;59099;48.806;9.160;2022-07-24T15:09:11;43.70;36.40
1301;DHT22;59099;48.806;9.160;2022-07-24T15:11:37;43.20;37.70
1301;DHT22;59099;48.806;9.160;2022-07-24T15:14:04;42.60;38.10
1301;DHT22;59099;48.806;9.160;2022-07-24T15:16:29;43.10;39.80
1301;DHT22;59099;48.806;9.160;2022-07-24T15:18:55;42.70;37.80
1301;DHT22;59099;48.806;9.160;2022-07-24T15:21:21;41.50;41.00
1301;DHT22;59099;48.806;9.160;2022-07-24T15:23:47;42.00;41.20
1301;DHT22;59099;48.806;9.160;2022-07-24T15:26:12;43.20;39.70
1301;DHT22;59099;48.806;9.160;2022-07-24T15:28:38;44.30;39.40
1301;DHT22;59099;48.806;9.160;2022-07-24T15:31:04;45.50;39.20
1301;DHT22;59099;48.806;9.160;2022-07-24T15:33:30;46.30;38.10
1301;DHT22;59099;48.806;9.160;2022-07-24T15:35:56;46.80;36.70
1301;DHT22;59099;48.806;9.160;2022-07-24T15:38:23;46.20;37.80
1301;DHT22;59099;48.806;9.160;2022-07-24T15:40:49;46.60;37.20
1301;DHT22;59099;48.806;9.160;2022-07-24T15:43:15;47.50;37.10
1301;DHT22;59099;48.806;9.160;2022-07-24T15:45:42;48.10;36.10
1301;DHT22;59099;48.806;9.160;2022-07-24T15:48:08;48.60;35.80
1301;DHT22;59099;48.806;9.160;2022-07-24T15:50:34;48.90;35.20
1301;DHT22;59099;48.806;9.160;2022-07-24T15:52:59;49.00;36.40
1301;DHT22;59099;48.806;9.160;2022-07-24T15:55:25;48.00;37.70
1301;DHT22;59099;48.806;9.160;2022-07-24T15:57:51;48.00;36.20
1301;DHT22;59099;48.806;9.160;2022-07-24T16:00:17;47.20;35.40
1301;DHT22;59099;48.806;9.160;2022-07-24T16:02:43;46.50;35.10
1301;DHT22;59099;48.806;9.160;2022-07-24T16:05:09;46.30;37.00
1301;DHT22;59099;48.806;9.160;2022-07-24T16:07:35;45.60;36.40
1301;DHT22;59099;48.806;9.160;2022-07-24T16:10:02;44.80;37.50
1301;DHT22;59099;48.806;9.160;2022-07-24T16:12:28;43.90;39.80
1301;DHT22;59099;48.806;9.160;2022-07-24T16:14:54;43.90;38.80
1301;DHT22;59099;48.806;9.160;2022-07-24T16:17:20;44.50;38.00
1301;DHT22;59099;48.806;9.160;2022-07-24T16:19:46;44.40;37.30
1301;DHT22;59099;48.806;9.160;2022-07-24T16:22:12;43.60;38.30
1301;DHT22;59099;48.806;9.160;2022-07-24T16:24:38;42.90;40.60
1301;DHT22;59099;48.806;9.160;2022-07-24T16:27:04;43.20;40.80
1301;DHT22;59099;48.806;9.160;2022-07-24T16:29:30;43.90;41.90
1301;DHT22;59099;48.806;9.160;2022-07-24T16:31:56;44.10;39.00
1301;DHT22;59099;48.806;9.160;2022-07-24T16:34:22;44.60;40.10